Accueil
METAR-TAF:

METAR-TAF

Aéroports :

Diepholz, Allemagne

latitude: 52-35N, longitude: 008-21E, altitude: 39 m

Observation

Le bulletin a été fait il y a 21 heures et 19 minutes, à 09:20 UTC
Vent 9 kt de sud-est
Température 14°C
Humidité 94%
Pression 1009 hPa
Visibilité 10 km ou plus
Quelques nuages à une hauteur de 3600 ft
Nuages fragmentés à une hauteur de 6000 ft
Ciel couvert à une hauteur de 13000 ft

METAR: ETND 200920Z 14009KT 9999 FEW036 BKN060 OVC130 14/13 Q1009 RERA BLU

Heure: 08:39 (06:39 UTC)


TAF: absent

Observations et prévisions météorologiques de plus de 4000 aéroports (messages METAR et TAF).

Les stations disponibles sont représentées par des disques jaunes et rouges sur la carte.

Passer la souris dessus pour voir le nom de la station.

Cliquer dessus pour voir les observations et prévisions météorologiques.

Pour changer de carte: cliquez sur les boutons verts avec une croix noire pour zoomer, sur le bouton vert avec un tiret pour effectuer un zoom arrière, ou sur les flèches vertes pour les cartes adjacentes.


METAR-TAF: